sensor_id;sensor_type;location;lat;lon;timestamp;temperature;humidity
7427;DHT22;3755;59.316;18.092;2022-12-18T00:00:59;-1.20;99.90
7427;DHT22;3755;59.316;18.092;2022-12-18T00:03:40;-1.20;99.90
7427;DHT22;3755;59.316;18.092;2022-12-18T00:06:14;-1.20;99.90
7427;DHT22;3755;59.316;18.092;2022-12-18T00:08:47;-1.20;99.90
7427;DHT22;3755;59.316;18.092;2022-12-18T00:11:22;-1.20;99.90
7427;DHT22;3755;59.316;18.092;2022-12-18T00:13:53;-1.20;99.90
7427;DHT22;3755;59.316;18.092;2022-12-18T00:16:22;-1.10;99.90
7427;DHT22;3755;59.316;18.092;2022-12-18T00:18:52;-1.20;99.90
7427;DHT22;3755;59.316;18.092;2022-12-18T00:21:21;-1.10;99.90
7427;DHT22;3755;59.316;18.092;2022-12-18T00:24:03;-1.10;99.90
7427;DHT22;3755;59.316;18.092;2022-12-18T00:26:48;-1.10;99.90
7427;DHT22;3755;59.316;18.092;2022-12-18T00:29:41;-1.10;99.90
7427;DHT22;3755;59.316;18.092;2022-12-18T00:32:08;-1.10;99.90
7427;DHT22;3755;59.316;18.092;2022-12-18T00:34:39;-1.00;99.90
7427;DHT22;3755;59.316;18.092;2022-12-18T00:37:08;-1.00;99.90
7427;DHT22;3755;59.316;18.092;2022-12-18T00:39:35;-1.10;99.90
7427;DHT22;3755;59.316;18.092;2022-12-18T00:48:46;-1.00;99.90
7427;DHT22;3755;59.316;18.092;2022-12-18T00:51:14;-1.00;99.90
7427;DHT22;3755;59.316;18.092;2022-12-18T00:53:55;-1.00;99.90
7427;DHT22;3755;59.316;18.092;2022-12-18T00:56:23;-1.00;99.90
7427;DHT22;3755;59.316;18.092;2022-12-18T00:58:51;-1.00;99.90
7427;DHT22;3755;59.316;18.092;2022-12-18T01:01:33;-1.00;99.90
7427;DHT22;3755;59.316;18.092;2022-12-18T01:04:06;-1.00;99.90
7427;DHT22;3755;59.316;18.092;2022-12-18T01:06:43;-1.00;99.90
7427;DHT22;3755;59.316;18.092;2022-12-18T01:09:11;-1.00;99.90
7427;DHT22;3755;59.316;18.092;2022-12-18T01:11:53;-1.00;99.90
7427;DHT22;3755;59.316;18.092;2022-12-18T01:14:32;-0.90;99.90
7427;DHT22;3755;59.316;18.092;2022-12-18T01:17:04;-1.00;99.90
7427;DHT22;3755;59.316;18.092;2022-12-18T01:19:34;-1.00;99.90
7427;DHT22;3755;59.316;18.092;2022-12-18T01:22:02;-1.00;99.90
7427;DHT22;3755;59.316;18.092;2022-12-18T01:24:34;-0.90;99.90
7427;DHT22;3755;59.316;18.092;2022-12-18T01:27:01;-1.00;99.90
7427;DHT22;3755;59.316;18.092;2022-12-18T01:29:30;-1.00;99.90
7427;DHT22;3755;59.316;18.092;2022-12-18T01:31:57;-0.90;99.90
7427;DHT22;3755;59.316;18.092;2022-12-18T01:34:37;-0.90;99.90
7427;DHT22;3755;59.316;18.092;2022-12-18T01:37:05;-0.80;99.90
7427;DHT22;3755;59.316;18.092;2022-12-18T01:39:32;-0.90;99.90
7427;DHT22;3755;59.316;18.092;2022-12-18T01:42:15;-0.80;99.90
7427;DHT22;3755;59.316;18.092;2022-12-18T01:44:59;-0.90;99.90
7427;DHT22;3755;59.316;18.092;2022-12-18T01:47:30;-0.90;99.90
7427;DHT22;3755;59.316;18.092;2022-12-18T01:50:04;-0.80;99.90
7427;DHT22;3755;59.316;18.092;2022-12-18T01:52:35;-0.90;99.90
7427;DHT22;3755;59.316;18.092;2022-12-18T01:55:05;-0.90;99.90
7427;DHT22;3755;59.316;18.092;2022-12-18T01:57:34;-0.90;99.90
7427;DHT22;3755;59.316;18.092;2022-12-18T02:00:07;-0.90;99.90
7427;DHT22;3755;59.316;18.092;2022-12-18T02:02:41;-0.90;99.90
7427;DHT22;3755;59.316;18.092;2022-12-18T02:05:13;-0.90;99.90
7427;DHT22;3755;59.316;18.092;2022-12-18T02:07:48;-0.90;99.90
7427;DHT22;3755;59.316;18.092;2022-12-18T02:10:25;-0.90;99.90
7427;DHT22;3755;59.316;18.092;2022-12-18T02:12:58;-0.90;99.90
7427;DHT22;3755;59.316;18.092;2022-12-18T02:15:34;-0.90;99.90
7427;DHT22;3755;59.316;18.092;2022-12-18T02:18:07;-1.00;99.90
7427;DHT22;3755;59.316;18.092;2022-12-18T02:20:45;-0.90;99.90
7427;DHT22;3755;59.316;18.092;2022-12-18T02:23:24;-0.80;99.90
7427;DHT22;3755;59.316;18.092;2022-12-18T02:26:19;-0.90;99.90
7427;DHT22;3755;59.316;18.092;2022-12-18T02:29:05;-0.80;99.90
7427;DHT22;3755;59.316;18.092;2022-12-18T02:31:39;-0.80;99.90
7427;DHT22;3755;59.316;18.092;2022-12-18T02:34:11;-0.80;99.90
7427;DHT22;3755;59.316;18.092;2022-12-18T02:36:53;-0.80;99.90
7427;DHT22;3755;59.316;18.092;2022-12-18T02:39:28;-0.80;99.90
7427;DHT22;3755;59.316;18.092;2022-12-18T02:42:01;-0.90;99.90
7427;DHT22;3755;59.316;18.092;2022-12-18T02:44:35;-0.80;99.90
7427;DHT22;3755;59.316;18.092;2022-12-18T02:47:03;-0.80;99.90
7427;DHT22;3755;59.316;18.092;2022-12-18T02:49:41;-0.80;99.90
7427;DHT22;3755;59.316;18.092;2022-12-18T02:52:18;-0.80;99.90
7427;DHT22;3755;59.316;18.092;2022-12-18T02:55:00;-0.90;99.90
7427;DHT22;3755;59.316;18.092;2022-12-18T02:57:44;-0.80;99.90
7427;DHT22;3755;59.316;18.092;2022-12-18T03:00:30;-0.90;99.90
7427;DHT22;3755;59.316;18.092;2022-12-18T03:03:06;-0.80;99.90
7427;DHT22;3755;59.316;18.092;2022-12-18T03:05:38;-0.80;99.90
7427;DHT22;3755;59.316;18.092;2022-12-18T03:08:23;-0.80;99.90
7427;DHT22;3755;59.316;18.092;2022-12-18T03:10:58;-0.80;99.90
7427;DHT22;3755;59.316;18.092;2022-12-18T03:13:32;-0.90;99.90
7427;DHT22;3755;59.316;18.092;2022-12-18T03:16:03;-0.90;99.90
7427;DHT22;3755;59.316;18.092;2022-12-18T03:18:41;-0.80;99.90
7427;DHT22;3755;59.316;18.092;2022-12-18T03:21:26;-0.90;99.90
7427;DHT22;3755;59.316;18.092;2022-12-18T03:23:57;-0.90;99.90
7427;DHT22;3755;59.316;18.092;2022-12-18T03:26:26;-0.90;99.90
7427;DHT22;3755;59.316;18.092;2022-12-18T03:29:16;-1.00;99.90
7427;DHT22;3755;59.316;18.092;2022-12-18T03:31:54;-1.00;99.90
7427;DHT22;3755;59.316;18.092;2022-12-18T03:34:28;-1.00;99.90
7427;DHT22;3755;59.316;18.092;2022-12-18T03:37:10;-0.90;99.90
7427;DHT22;3755;59.316;18.092;2022-12-18T03:39:48;-1.00;99.90
7427;DHT22;3755;59.316;18.092;2022-12-18T03:42:21;-0.90;99.90
7427;DHT22;3755;59.316;18.092;2022-12-18T03:45:11;-1.00;99.90
7427;DHT22;3755;59.316;18.092;2022-12-18T03:47:46;-1.00;99.90
7427;DHT22;3755;59.316;18.092;2022-12-18T03:50:20;-1.00;99.90
7427;DHT22;3755;59.316;18.092;2022-12-18T03:52:54;-0.90;99.90
7427;DHT22;3755;59.316;18.092;2022-12-18T03:55:24;-1.00;99.90
7427;DHT22;3755;59.316;18.092;2022-12-18T03:57:55;-1.00;99.90
7427;DHT22;3755;59.316;18.092;2022-12-18T04:00:28;-1.00;99.90
7427;DHT22;3755;59.316;18.092;2022-12-18T04:02:59;-1.00;99.90
7427;DHT22;3755;59.316;18.092;2022-12-18T04:05:29;-1.00;99.90
7427;DHT22;3755;59.316;18.092;2022-12-18T04:07:58;-1.00;99.90
7427;DHT22;3755;59.316;18.092;2022-12-18T04:10:26;-1.00;99.90
7427;DHT22;3755;59.316;18.092;2022-12-18T04:12:56;-1.00;99.90
7427;DHT22;3755;59.316;18.092;2022-12-18T04:15:23;-0.60;99.90
7427;DHT22;3755;59.316;18.092;2022-12-18T04:17:55;-1.00;99.90
7427;DHT22;3755;59.316;18.092;2022-12-18T04:20:22;-1.00;99.90
7427;DHT22;3755;59.316;18.092;2022-12-18T04:22:51;-0.90;99.90
7427;DHT22;3755;59.316;18.092;2022-12-18T04:25:18;-0.90;99.90
7427;DHT22;3755;59.316;18.092;2022-12-18T04:27:46;-1.00;99.90
7427;DHT22;3755;59.316;18.092;2022-12-18T04:30:13;-1.00;99.90
7427;DHT22;3755;59.316;18.092;2022-12-18T04:32:40;-1.00;99.90
7427;DHT22;3755;59.316;18.092;2022-12-18T04:35:09;-1.00;99.90
7427;DHT22;3755;59.316;18.092;2022-12-18T04:37:37;-1.00;99.90
7427;DHT22;3755;59.316;18.092;2022-12-18T04:40:07;-1.00;99.90
7427;DHT22;3755;59.316;18.092;2022-12-18T04:42:34;-1.10;99.90
7427;DHT22;3755;59.316;18.092;2022-12-18T04:45:04;-1.10;99.90
7427;DHT22;3755;59.316;18.092;2022-12-18T04:47:32;-1.00;99.90
7427;DHT22;3755;59.316;18.092;2022-12-18T04:49:59;-1.00;99.90
7427;DHT22;3755;59.316;18.092;2022-12-18T04:52:29;-1.00;99.90
7427;DHT22;3755;59.316;18.092;2022-12-18T04:55:01;-1.10;99.90
7427;DHT22;3755;59.316;18.092;2022-12-18T04:57:32;-1.10;99.90
7427;DHT22;3755;59.316;18.092;2022-12-18T04:59:59;-1.10;99.90
7427;DHT22;3755;59.316;18.092;2022-12-18T05:02:26;-1.10;99.90
7427;DHT22;3755;59.316;18.092;2022-12-18T05:04:54;-1.10;99.90
7427;DHT22;3755;59.316;18.092;2022-12-18T05:07:21;-1.10;99.90
7427;DHT22;3755;59.316;18.092;2022-12-18T05:09:50;-1.10;99.90
7427;DHT22;3755;59.316;18.092;2022-12-18T05:12:17;-1.10;99.90
7427;DHT22;3755;59.316;18.092;2022-12-18T05:14:45;-1.10;99.90
7427;DHT22;3755;59.316;18.092;2022-12-18T05:17:12;-1.10;99.90
7427;DHT22;3755;59.316;18.092;2022-12-18T05:19:40;-0.80;99.90
7427;DHT22;3755;59.316;18.092;2022-12-18T05:22:07;-1.10;99.90
7427;DHT22;3755;59.316;18.092;2022-12-18T05:24:35;-1.10;99.90
7427;DHT22;3755;59.316;18.092;2022-12-18T05:27:04;-1.10;99.90
7427;DHT22;3755;59.316;18.092;2022-12-18T05:29:32;-1.10;99.90
7427;DHT22;3755;59.316;18.092;2022-12-18T05:31:59;-1.10;99.90
7427;DHT22;3755;59.316;18.092;2022-12-18T05:34:27;-1.00;99.90
7427;DHT22;3755;59.316;18.092;2022-12-18T05:36:54;-1.00;99.90
7427;DHT22;3755;59.316;18.092;2022-12-18T05:39:35;-1.00;99.90
7427;DHT22;3755;59.316;18.092;2022-12-18T05:42:04;-1.00;99.90
7427;DHT22;3755;59.316;18.092;2022-12-18T05:44:32;-1.00;99.90
7427;DHT22;3755;59.316;18.092;2022-12-18T05:47:00;-1.00;99.90
7427;DHT22;3755;59.316;18.092;2022-12-18T05:49:27;-1.00;99.90
7427;DHT22;3755;59.316;18.092;2022-12-18T05:51:55;-0.90;99.90
7427;DHT22;3755;59.316;18.092;2022-12-18T05:54:22;-0.90;99.90
7427;DHT22;3755;59.316;18.092;2022-12-18T05:56:50;-0.90;99.90
7427;DHT22;3755;59.316;18.092;2022-12-18T05:59:20;-0.80;99.90
7427;DHT22;3755;59.316;18.092;2022-12-18T06:02:01;-0.90;99.90
7427;DHT22;3755;59.316;18.092;2022-12-18T06:04:29;-0.90;99.90
7427;DHT22;3755;59.316;18.092;2022-12-18T06:06:57;-0.80;99.90
7427;DHT22;3755;59.316;18.092;2022-12-18T06:09:25;-0.80;99.90
7427;DHT22;3755;59.316;18.092;2022-12-18T06:11:53;-0.70;99.90
7427;DHT22;3755;59.316;18.092;2022-12-18T06:14:22;-0.80;99.90
7427;DHT22;3755;59.316;18.092;2022-12-18T06:16:51;-0.80;99.90
7427;DHT22;3755;59.316;18.092;2022-12-18T06:19:21;-0.90;99.90
7427;DHT22;3755;59.316;18.092;2022-12-18T06:22:03;-0.90;99.90
7427;DHT22;3755;59.316;18.092;2022-12-18T06:24:37;-0.80;99.90
7427;DHT22;3755;59.316;18.092;2022-12-18T06:27:04;-0.80;99.90
7427;DHT22;3755;59.316;18.092;2022-12-18T06:29:34;-0.80;99.90
7427;DHT22;3755;59.316;18.092;2022-12-18T06:32:06;-0.80;99.90
7427;DHT22;3755;59.316;18.092;2022-12-18T06:34:36;-0.70;99.90
7427;DHT22;3755;59.316;18.092;2022-12-18T06:37:12;-0.70;99.90
7427;DHT22;3755;59.316;18.092;2022-12-18T06:39:40;-0.70;99.90
7427;DHT22;3755;59.316;18.092;2022-12-18T06:42:21;-0.80;99.90
7427;DHT22;3755;59.316;18.092;2022-12-18T06:44:53;-0.70;99.90
7427;DHT22;3755;59.316;18.092;2022-12-18T06:47:31;-0.70;99.90
7427;DHT22;3755;59.316;18.092;2022-12-18T06:49:59;-0.70;99.90
7427;DHT22;3755;59.316;18.092;2022-12-18T06:52:26;-0.70;99.90
7427;DHT22;3755;59.316;18.092;2022-12-18T06:54:54;-0.70;99.90
7427;DHT22;3755;59.316;18.092;2022-12-18T06:57:23;-0.60;99.90
7427;DHT22;3755;59.316;18.092;2022-12-18T07:02:53;-0.60;99.90
7427;DHT22;3755;59.316;18.092;2022-12-18T07:05:24;-0.60;99.90
7427;DHT22;3755;59.316;18.092;2022-12-18T07:07:57;-0.60;99.90
7427;DHT22;3755;59.316;18.092;2022-12-18T07:10:25;-0.90;99.90
7427;DHT22;3755;59.316;18.092;2022-12-18T07:12:53;-0.50;99.90
7427;DHT22;3755;59.316;18.092;2022-12-18T07:15:20;-0.50;99.90
7427;DHT22;3755;59.316;18.092;2022-12-18T07:18:18;-0.50;99.90
7427;DHT22;3755;59.316;18.092;2022-12-18T07:20:51;-0.40;99.90
7427;DHT22;3755;59.316;18.092;2022-12-18T07:23:18;-0.40;99.90
7427;DHT22;3755;59.316;18.092;2022-12-18T07:25:46;-0.40;99.90
7427;DHT22;3755;59.316;18.092;2022-12-18T07:28:14;-0.30;99.90
7427;DHT22;3755;59.316;18.092;2022-12-18T07:30:53;-0.20;99.90
7427;DHT22;3755;59.316;18.092;2022-12-18T07:33:44;-0.20;99.90
7427;DHT22;3755;59.316;18.092;2022-12-18T07:36:16;-0.20;99.90
7427;DHT22;3755;59.316;18.092;2022-12-18T07:38:46;-0.20;99.90
7427;DHT22;3755;59.316;18.092;2022-12-18T07:41:15;-0.10;99.90
7427;DHT22;3755;59.316;18.092;2022-12-18T07:43:57;-0.10;99.90
7427;DHT22;3755;59.316;18.092;2022-12-18T07:46:25;0.00;99.90
7427;DHT22;3755;59.316;18.092;2022-12-18T07:48:55;0.00;99.90
7427;DHT22;3755;59.316;18.092;2022-12-18T07:51:22;0.10;99.90
7427;DHT22;3755;59.316;18.092;2022-12-18T07:53:51;0.10;99.90
7427;DHT22;3755;59.316;18.092;2022-12-18T07:56:19;0.10;99.90
7427;DHT22;3755;59.316;18.092;2022-12-18T07:58:47;0.20;99.90
7427;DHT22;3755;59.316;18.092;2022-12-18T08:01:14;0.20;99.90
7427;DHT22;3755;59.316;18.092;2022-12-18T08:03:41;0.20;99.90
7427;DHT22;3755;59.316;18.092;2022-12-18T08:06:14;0.20;99.90
7427;DHT22;3755;59.316;18.092;2022-12-18T08:08:46;0.30;99.90
7427;DHT22;3755;59.316;18.092;2022-12-18T08:11:28;0.00;99.90
7427;DHT22;3755;59.316;18.092;2022-12-18T08:14:01;0.40;99.90
7427;DHT22;3755;59.316;18.092;2022-12-18T08:16:29;0.40;99.90
7427;DHT22;3755;59.316;18.092;2022-12-18T08:18:59;0.40;99.90
7427;DHT22;3755;59.316;18.092;2022-12-18T08:21:31;0.40;99.90
7427;DHT22;3755;59.316;18.092;2022-12-18T08:24:00;0.50;99.90
7427;DHT22;3755;59.316;18.092;2022-12-18T08:26:42;0.50;99.90
7427;DHT22;3755;59.316;18.092;2022-12-18T08:29:10;0.50;99.90
7427;DHT22;3755;59.316;18.092;2022-12-18T08:31:42;0.50;99.90
7427;DHT22;3755;59.316;18.092;2022-12-18T08:34:16;0.50;99.90
7427;DHT22;3755;59.316;18.092;2022-12-18T08:36:48;0.60;99.90
7427;DHT22;3755;59.316;18.092;2022-12-18T08:39:16;0.60;99.90
7427;DHT22;3755;59.316;18.092;2022-12-18T08:41:45;0.60;99.90
7427;DHT22;3755;59.316;18.092;2022-12-18T08:44:33;0.60;99.90
7427;DHT22;3755;59.316;18.092;2022-12-18T08:47:08;0.70;99.90
7427;DHT22;3755;59.316;18.092;2022-12-18T08:49:51;0.70;99.90
7427;DHT22;3755;59.316;18.092;2022-12-18T08:52:23;0.80;99.90
7427;DHT22;3755;59.316;18.092;2022-12-18T08:54:52;0.80;99.90
7427;DHT22;3755;59.316;18.092;2022-12-18T08:57:19;0.80;99.90
7427;DHT22;3755;59.316;18.092;2022-12-18T08:59:49;0.80;99.90
7427;DHT22;3755;59.316;18.092;2022-12-18T09:02:16;0.80;99.90
7427;DHT22;3755;59.316;18.092;2022-12-18T09:04:46;0.70;99.90
7427;DHT22;3755;59.316;18.092;2022-12-18T09:07:15;0.80;99.90
7427;DHT22;3755;59.316;18.092;2022-12-18T09:09:55;0.90;99.90
7427;DHT22;3755;59.316;18.092;2022-12-18T09:12:23;0.90;99.90
7427;DHT22;3755;59.316;18.092;2022-12-18T09:14:54;1.00;99.90
7427;DHT22;3755;59.316;18.092;2022-12-18T09:17:22;1.10;99.90
7427;DHT22;3755;59.316;18.092;2022-12-18T09:19:52;1.10;99.90
7427;DHT22;3755;59.316;18.092;2022-12-18T09:22:19;1.20;99.90
7427;DHT22;3755;59.316;18.092;2022-12-18T09:24:50;1.20;99.90
7427;DHT22;3755;59.316;18.092;2022-12-18T09:27:53;1.30;99.90
7427;DHT22;3755;59.316;18.092;2022-12-18T09:30:20;1.30;99.90
7427;DHT22;3755;59.316;18.092;2022-12-18T09:33:01;1.30;99.90
7427;DHT22;3755;59.316;18.092;2022-12-18T09:35:47;1.40;99.90
7427;DHT22;3755;59.316;18.092;2022-12-18T09:38:35;1.40;99.90
7427;DHT22;3755;59.316;18.092;2022-12-18T09:44:25;1.50;99.90
7427;DHT22;3755;59.316;18.092;2022-12-18T09:47:02;1.50;99.90
7427;DHT22;3755;59.316;18.092;2022-12-18T09:49:35;1.60;99.90
7427;DHT22;3755;59.316;18.092;2022-12-18T09:52:09;1.60;99.90
7427;DHT22;3755;59.316;18.092;2022-12-18T09:54:55;1.50;99.90
7427;DHT22;3755;59.316;18.092;2022-12-18T09:57:26;1.60;99.90
7427;DHT22;3755;59.316;18.092;2022-12-18T09:59:58;1.60;99.90
7427;DHT22;3755;59.316;18.092;2022-12-18T10:02:26;1.60;99.90
7427;DHT22;3755;59.316;18.092;2022-12-18T10:05:15;1.60;99.90
7427;DHT22;3755;59.316;18.092;2022-12-18T10:07:55;1.70;99.90
7427;DHT22;3755;59.316;18.092;2022-12-18T10:10:37;1.80;99.90
7427;DHT22;3755;59.316;18.092;2022-12-18T10:13:21;1.80;99.90
7427;DHT22;3755;59.316;18.092;2022-12-18T10:15:59;1.80;99.90
7427;DHT22;3755;59.316;18.092;2022-12-18T10:18:42;1.80;99.90
7427;DHT22;3755;59.316;18.092;2022-12-18T10:21:34;1.80;99.90
7427;DHT22;3755;59.316;18.092;2022-12-18T10:24:11;1.80;99.90
7427;DHT22;3755;59.316;18.092;2022-12-18T10:26:42;1.90;99.90
7427;DHT22;3755;59.316;18.092;2022-12-18T10:29:27;1.90;99.90
7427;DHT22;3755;59.316;18.092;2022-12-18T10:31:54;1.90;99.90
7427;DHT22;3755;59.316;18.092;2022-12-18T10:34:24;1.90;99.90
7427;DHT22;3755;59.316;18.092;2022-12-18T10:36:51;1.90;99.90
7427;DHT22;3755;59.316;18.092;2022-12-18T10:39:21;1.90;99.90
7427;DHT22;3755;59.316;18.092;2022-12-18T10:42:11;2.00;99.90
7427;DHT22;3755;59.316;18.092;2022-12-18T10:44:46;1.90;99.90
7427;DHT22;3755;59.316;18.092;2022-12-18T10:47:43;1.90;99.90
7427;DHT22;3755;59.316;18.092;2022-12-18T10:50:25;1.90;99.90
7427;DHT22;3755;59.316;18.092;2022-12-18T10:53:04;1.90;99.90
7427;DHT22;3755;59.316;18.092;2022-12-18T10:55:34;1.90;99.90
7427;DHT22;3755;59.316;18.092;2022-12-18T10:58:26;1.90;99.90
7427;DHT22;3755;59.316;18.092;2022-12-18T11:01:07;2.00;99.90
7427;DHT22;3755;59.316;18.092;2022-12-18T11:03:37;2.00;99.90
7427;DHT22;3755;59.316;18.092;2022-12-18T11:06:08;2.00;99.90
7427;DHT22;3755;59.316;18.092;2022-12-18T11:08:35;2.00;99.90
7427;DHT22;3755;59.316;18.092;2022-12-18T11:11:06;1.90;99.90
7427;DHT22;3755;59.316;18.092;2022-12-18T11:13:34;1.90;99.90
7427;DHT22;3755;59.316;18.092;2022-12-18T11:16:02;1.90;99.90
7427;DHT22;3755;59.316;18.092;2022-12-18T11:18:32;2.00;99.90
7427;DHT22;3755;59.316;18.092;2022-12-18T11:21:06;2.00;99.90
7427;DHT22;3755;59.316;18.092;2022-12-18T11:23:46;2.00;99.90
7427;DHT22;3755;59.316;18.092;2022-12-18T11:26:14;1.90;99.90
7427;DHT22;3755;59.316;18.092;2022-12-18T11:28:45;2.00;99.90
7427;DHT22;3755;59.316;18.092;2022-12-18T11:31:23;1.90;99.90
7427;DHT22;3755;59.316;18.092;2022-12-18T11:34:02;1.90;99.90
7427;DHT22;3755;59.316;18.092;2022-12-18T11:36:39;2.00;99.90
7427;DHT22;3755;59.316;18.092;2022-12-18T11:39:15;2.00;99.90
7427;DHT22;3755;59.316;18.092;2022-12-18T11:41:51;1.90;99.90
7427;DHT22;3755;59.316;18.092;2022-12-18T11:44:52;1.90;99.90
7427;DHT22;3755;59.316;18.092;2022-12-18T11:47:26;1.90;99.90
7427;DHT22;3755;59.316;18.092;2022-12-18T11:50:03;1.90;99.90
7427;DHT22;3755;59.316;18.092;2022-12-18T11:52:44;2.00;99.90
7427;DHT22;3755;59.316;18.092;2022-12-18T11:55:14;2.00;99.90
7427;DHT22;3755;59.316;18.092;2022-12-18T11:57:50;1.80;99.90
7427;DHT22;3755;59.316;18.092;2022-12-18T12:00:23;2.00;99.90
7427;DHT22;3755;59.316;18.092;2022-12-18T12:03:14;2.00;99.90
7427;DHT22;3755;59.316;18.092;2022-12-18T12:05:57;2.00;99.90
7427;DHT22;3755;59.316;18.092;2022-12-18T12:08:37;2.00;99.90
7427;DHT22;3755;59.316;18.092;2022-12-18T12:11:13;2.00;99.90
7427;DHT22;3755;59.316;18.092;2022-12-18T12:13:50;2.10;99.90
7427;DHT22;3755;59.316;18.092;2022-12-18T12:16:28;2.10;99.90
7427;DHT22;3755;59.316;18.092;2022-12-18T12:19:16;2.20;99.90
7427;DHT22;3755;59.316;18.092;2022-12-18T12:21:58;2.20;99.90
7427;DHT22;3755;59.316;18.092;2022-12-18T12:24:55;2.20;99.90
7427;DHT22;3755;59.316;18.092;2022-12-18T12:27:45;2.20;99.90
7427;DHT22;3755;59.316;18.092;2022-12-18T12:30:21;2.30;99.90
7427;DHT22;3755;59.316;18.092;2022-12-18T12:33:08;2.30;99.90
7427;DHT22;3755;59.316;18.092;2022-12-18T12:35:49;2.30;99.90
7427;DHT22;3755;59.316;18.092;2022-12-18T12:38:27;2.30;99.90
7427;DHT22;3755;59.316;18.092;2022-12-18T12:41:13;2.30;99.90
7427;DHT22;3755;59.316;18.092;2022-12-18T12:43:58;2.30;99.90
7427;DHT22;3755;59.316;18.092;2022-12-18T12:46:42;2.30;99.90
7427;DHT22;3755;59.316;18.092;2022-12-18T12:49:16;2.30;99.90
7427;DHT22;3755;59.316;18.092;2022-12-18T12:52:05;2.30;99.90
7427;DHT22;3755;59.316;18.092;2022-12-18T12:54:52;2.30;99.90
7427;DHT22;3755;59.316;18.092;2022-12-18T12:57:33;2.40;99.90
7427;DHT22;3755;59.316;18.092;2022-12-18T13:00:16;2.40;99.90
7427;DHT22;3755;59.316;18.092;2022-12-18T13:02:52;2.40;99.90
7427;DHT22;3755;59.316;18.092;2022-12-18T13:05:28;2.40;99.90
7427;DHT22;3755;59.316;18.092;2022-12-18T13:08:02;2.50;99.90
7427;DHT22;3755;59.316;18.092;2022-12-18T13:10:48;2.50;99.90
7427;DHT22;3755;59.316;18.092;2022-12-18T13:13:48;2.40;99.90
7427;DHT22;3755;59.316;18.092;2022-12-18T13:16:30;2.60;99.90
7427;DHT22;3755;59.316;18.092;2022-12-18T13:19:22;2.60;99.90
7427;DHT22;3755;59.316;18.092;2022-12-18T13:22:21;2.60;99.90
7427;DHT22;3755;59.316;18.092;2022-12-18T13:25:41;2.60;99.90
7427;DHT22;3755;59.316;18.092;2022-12-18T13:32:10;2.70;99.90
7427;DHT22;3755;59.316;18.092;2022-12-18T13:38:22;2.70;99.90
7427;DHT22;3755;59.316;18.092;2022-12-18T13:40:56;2.70;99.90
7427;DHT22;3755;59.316;18.092;2022-12-18T13:43:43;2.70;99.90
7427;DHT22;3755;59.316;18.092;2022-12-18T13:46:27;2.70;99.90
7427;DHT22;3755;59.316;18.092;2022-12-18T13:49:22;2.60;99.90
7427;DHT22;3755;59.316;18.092;2022-12-18T13:52:16;2.50;99.90
7427;DHT22;3755;59.316;18.092;2022-12-18T13:54:51;2.60;99.90
7427;DHT22;3755;59.316;18.092;2022-12-18T13:57:35;2.60;99.90
7427;DHT22;3755;59.316;18.092;2022-12-18T14:00:24;2.60;99.90
7427;DHT22;3755;59.316;18.092;2022-12-18T14:03:17;2.60;99.90
7427;DHT22;3755;59.316;18.092;2022-12-18T14:06:11;2.50;99.90
7427;DHT22;3755;59.316;18.092;2022-12-18T14:08:58;2.60;99.90
7427;DHT22;3755;59.316;18.092;2022-12-18T14:11:39;2.70;99.90
7427;DHT22;3755;59.316;18.092;2022-12-18T14:14:21;2.70;99.90
7427;DHT22;3755;59.316;18.092;2022-12-18T14:17:03;2.50;99.90
7427;DHT22;3755;59.316;18.092;2022-12-18T14:19:50;2.70;99.90
7427;DHT22;3755;59.316;18.092;2022-12-18T14:29:37;2.70;99.90
7427;DHT22;3755;59.316;18.092;2022-12-18T14:32:25;2.70;99.90
7427;DHT22;3755;59.316;18.092;2022-12-18T14:35:13;2.70;99.90
7427;DHT22;3755;59.316;18.092;2022-12-18T14:41:19;2.80;99.90
7427;DHT22;3755;59.316;18.092;2022-12-18T14:44:06;2.90;99.90
7427;DHT22;3755;59.316;18.092;2022-12-18T14:53:42;2.80;99.90
7427;DHT22;3755;59.316;18.092;2022-12-18T14:56:36;2.80;99.90
7427;DHT22;3755;59.316;18.092;2022-12-18T14:59:28;2.80;99.90
7427;DHT22;3755;59.316;18.092;2022-12-18T15:02:23;2.80;99.90
7427;DHT22;3755;59.316;18.092;2022-12-18T15:05:17;2.80;99.90
7427;DHT22;3755;59.316;18.092;2022-12-18T15:08:01;2.80;99.90
7427;DHT22;3755;59.316;18.092;2022-12-18T15:10:48;2.70;99.90
7427;DHT22;3755;59.316;18.092;2022-12-18T15:13:27;2.70;99.90
7427;DHT22;3755;59.316;18.092;2022-12-18T15:16:12;2.60;99.90
7427;DHT22;3755;59.316;18.092;2022-12-18T15:18:48;2.60;99.90
7427;DHT22;3755;59.316;18.092;2022-12-18T15:21:19;2.50;99.90
7427;DHT22;3755;59.316;18.092;2022-12-18T15:23:49;2.60;99.90
7427;DHT22;3755;59.316;18.092;2022-12-18T15:30:15;2.60;99.90
7427;DHT22;3755;59.316;18.092;2022-12-18T15:33:23;2.60;99.90
7427;DHT22;3755;59.316;18.092;2022-12-18T15:36:08;2.60;99.90
7427;DHT22;3755;59.316;18.092;2022-12-18T15:42:01;2.60;99.90
7427;DHT22;3755;59.316;18.092;2022-12-18T15:44:57;2.70;99.90
7427;DHT22;3755;59.316;18.092;2022-12-18T15:57:29;2.80;99.90
7427;DHT22;3755;59.316;18.092;2022-12-18T16:00:01;2.80;99.90
7427;DHT22;3755;59.316;18.092;2022-12-18T16:02:50;2.70;99.90
7427;DHT22;3755;59.316;18.092;2022-12-18T16:05:20;2.70;99.90
7427;DHT22;3755;59.316;18.092;2022-12-18T16:07:53;2.70;99.90
7427;DHT22;3755;59.316;18.092;2022-12-18T16:10:22;2.80;99.90
7427;DHT22;3755;59.316;18.092;2022-12-18T16:12:52;2.80;99.90
7427;DHT22;3755;59.316;18.092;2022-12-18T16:15:19;2.80;99.90
7427;DHT22;3755;59.316;18.092;2022-12-18T16:17:50;2.70;99.90
7427;DHT22;3755;59.316;18.092;2022-12-18T16:20:20;2.70;99.90
7427;DHT22;3755;59.316;18.092;2022-12-18T16:22:49;2.70;99.90
7427;DHT22;3755;59.316;18.092;2022-12-18T16:25:24;2.70;99.90
7427;DHT22;3755;59.316;18.092;2022-12-18T16:27:56;2.70;99.90
7427;DHT22;3755;59.316;18.092;2022-12-18T16:30:37;2.70;99.90
7427;DHT22;3755;59.316;18.092;2022-12-18T16:33:07;2.70;99.90
7427;DHT22;3755;59.316;18.092;2022-12-18T16:35:35;2.70;99.90
7427;DHT22;3755;59.316;18.092;2022-12-18T16:38:04;2.80;99.90
7427;DHT22;3755;59.316;18.092;2022-12-18T16:40:32;2.80;99.90
7427;DHT22;3755;59.316;18.092;2022-12-18T16:43:25;2.80;99.90
7427;DHT22;3755;59.316;18.092;2022-12-18T16:45:53;2.80;99.90
7427;DHT22;3755;59.316;18.092;2022-12-18T16:48:23;2.80;99.90
7427;DHT22;3755;59.316;18.092;2022-12-18T16:50:51;2.70;99.90
7427;DHT22;3755;59.316;18.092;2022-12-18T16:53:29;2.70;99.90
7427;DHT22;3755;59.316;18.092;2022-12-18T16:55:59;2.70;99.90
7427;DHT22;3755;59.316;18.092;2022-12-18T16:58:35;2.70;99.90
7427;DHT22;3755;59.316;18.092;2022-12-18T17:01:07;2.60;99.90
7427;DHT22;3755;59.316;18.092;2022-12-18T17:03:52;2.60;99.90
7427;DHT22;3755;59.316;18.092;2022-12-18T17:06:20;2.60;99.90
7427;DHT22;3755;59.316;18.092;2022-12-18T17:08:49;2.60;99.90
7427;DHT22;3755;59.316;18.092;2022-12-18T17:11:20;2.60;99.90
7427;DHT22;3755;59.316;18.092;2022-12-18T17:13:54;2.60;99.90
7427;DHT22;3755;59.316;18.092;2022-12-18T17:16:35;2.60;99.90
7427;DHT22;3755;59.316;18.092;2022-12-18T17:19:02;2.60;99.90
7427;DHT22;3755;59.316;18.092;2022-12-18T17:21:30;2.60;99.90
7427;DHT22;3755;59.316;18.092;2022-12-18T17:23:59;2.60;99.90
7427;DHT22;3755;59.316;18.092;2022-12-18T17:26:31;2.50;99.90
7427;DHT22;3755;59.316;18.092;2022-12-18T17:29:02;2.50;99.90
7427;DHT22;3755;59.316;18.092;2022-12-18T17:31:48;2.50;99.90
7427;DHT22;3755;59.316;18.092;2022-12-18T17:34:16;2.40;99.90
7427;DHT22;3755;59.316;18.092;2022-12-18T17:36:46;2.40;99.90
7427;DHT22;3755;59.316;18.092;2022-12-18T17:39:17;2.50;99.90
7427;DHT22;3755;59.316;18.092;2022-12-18T17:41:59;2.50;99.90